Time;durP1;ratioP1;P1;durP2;ratioP2;P2;SDS_P1;SDS_P2;PMS_P1;PMS_P2;Temp;Humidity;BMP_temperature;BMP_pressure;BME280_temperature;BME280_humidity;BME280_pressure;Samples;Min_cycle;Max_cycle;Signal;HPM_P1;HPM_P2
2022/01/12 00:00:21;;;;;;;5.43;4.93;;;;;;;-0.27;79.28;98382.22;5091044;28;20509;-65
2022/01/12 00:02:46;;;;;;;5.75;5.15;;;;;;;-0.25;78.66;98390.66;5090789;28;20386;-65
2022/01/12 00:05:12;;;;;;;6.15;5.05;;;;;;;-0.30;79.05;98397.09;5090968;28;20394;-65
2022/01/12 00:07:37;;;;;;;5.47;5.00;;;;;;;-0.37;79.72;98390.78;5090656;28;20424;-65
2022/01/12 00:10:04;;;;;;;5.43;4.93;;;;;;;-0.38;79.17;98392.53;5091107;28;20390;-65
2022/01/12 00:12:29;;;;;;;5.60;4.88;;;;;;;-0.23;79.16;98393.13;5090758;28;20866;-65
2022/01/12 00:14:54;;;;;;;5.67;5.17;;;;;;;-0.25;79.13;98392.41;5091342;28;20416;-65
2022/01/12 00:17:20;;;;;;;5.90;5.03;;;;;;;-0.32;79.23;98396.41;5094883;28;20747;-64
2022/01/12 00:19:45;;;;;;;5.83;5.23;;;;;;;-0.40;80.06;98397.00;5095106;28;20410;-65
2022/01/12 00:22:12;;;;;;;6.43;5.60;;;;;;;-0.08;78.64;98409.97;5095205;28;20385;-64
2022/01/12 00:25:03;;;;;;;6.63;5.90;;;;;;;-0.01;78.36;98409.38;5094640;28;20397;-65
2022/01/12 00:35:33;;;;;;;7.15;6.30;;;;;;;-0.70;81.09;98402.72;5094982;28;20394;-67
2022/01/12 00:37:59;;;;;;;7.13;6.43;;;;;;;-0.59;80.52;98401.91;5094465;28;20416;-65
2022/01/12 00:40:24;;;;;;;9.38;6.63;;;;;;;-0.65;80.87;98408.34;5094767;28;20410;-65
2022/01/12 00:42:49;;;;;;;7.50;6.53;;;;;;;-0.36;80.26;98403.56;5094251;28;20484;-65
2022/01/12 00:45:17;;;;;;;7.13;6.43;;;;;;;-0.50;79.91;98402.03;5076062;28;20912;-65
2022/01/12 00:47:43;;;;;;;8.82;6.88;;;;;;;-0.54;80.51;98408.34;5094155;28;20382;-65
2022/01/12 00:50:08;;;;;;;7.67;6.57;;;;;;;-0.47;80.36;98406.94;5094464;28;20396;-66
2022/01/12 00:52:34;;;;;;;8.20;6.68;;;;;;;-0.51;80.63;98405.56;5094291;28;20453;-64
2022/01/12 00:54:59;;;;;;;7.65;6.38;;;;;;;-0.50;80.36;98407.16;5094896;28;20391;-64
2022/01/12 00:57:24;;;;;;;6.93;6.23;;;;;;;-0.36;79.81;98416.44;5094348;28;20390;-64
2022/01/12 00:59:50;;;;;;;7.27;5.97;;;;;;;-0.48;79.91;98425.91;5094419;28;20743;-65
2022/01/12 01:02:15;;;;;;;8.15;6.40;;;;;;;-0.44;79.89;98413.59;5094210;28;20521;-65
2022/01/12 01:04:41;;;;;;;7.77;6.70;;;;;;;-0.54;81.17;98428.13;5094260;28;20383;-64
2022/01/12 01:07:06;;;;;;;6.83;6.13;;;;;;;-0.81;81.63;98420.75;5093694;28;20871;-65
2022/01/12 01:09:34;;;;;;;7.60;6.30;;;;;;;-0.74;81.62;98428.81;5094510;28;20755;-64
2022/01/12 01:12:00;;;;;;;7.75;6.43;;;;;;;-0.71;81.49;98421.69;5094265;28;20408;-64
2022/01/12 01:14:43;;;;;;;8.40;6.40;;;;;;;-0.64;81.17;98424.63;5094053;28;20390;-65
2022/01/12 01:27:56;;;;;;;8.83;6.70;;;;;;;-0.42;79.69;98442.66;5093229;28;20397;-64
2022/01/12 01:30:21;;;;;;;7.10;6.30;;;;;;;-0.53;80.33;98435.75;5093666;28;20393;-65
2022/01/12 01:32:48;;;;;;;7.60;6.57;;;;;;;-0.48;80.48;98432.81;5093270;28;20397;-64
2022/01/12 01:35:14;;;;;;;9.85;7.05;;;;;;;-0.33;79.48;98434.22;5083904;28;20749;-64
2022/01/12 01:37:41;;;;;;;7.88;6.70;;;;;;;-0.53;80.86;98438.31;5093467;28;20739;-64
2022/01/12 01:40:11;;;;;;;7.75;6.85;;;;;;;-0.73;81.61;98431.28;5075585;28;20420;-64
2022/01/12 01:43:07;;;;;;;7.72;6.93;;;;;;;-0.51;81.01;98433.88;5093121;28;20393;-65
2022/01/12 01:53:48;;;;;;;8.57;7.05;;;;;;;-0.92;82.37;98424.13;5093082;28;20441;-64
2022/01/12 01:56:14;;;;;;;7.70;6.43;;;;;;;-0.70;81.76;98410.44;5093227;28;20418;-64
2022/01/12 01:58:40;;;;;;;10.43;6.75;;;;;;;-0.56;80.73;98410.22;5093409;28;20443;-64
2022/01/12 02:01:06;;;;;;;7.65;5.90;;;;;;;-0.61;80.20;98406.34;5074748;28;20390;-64
2022/01/12 02:03:33;;;;;;;7.05;5.88;;;;;;;-0.65;80.52;98415.25;5093185;28;20394;-65
2022/01/12 02:05:59;;;;;;;5.97;5.37;;;;;;;-0.45;80.02;98412.00;5093515;28;20393;-65
2022/01/12 02:08:25;;;;;;;6.15;5.55;;;;;;;-0.70;80.83;98418.19;5092528;28;20394;-64
2022/01/12 02:10:55;;;;;;;6.43;5.60;;;;;;;-0.67;80.97;98412.00;5074725;28;20452;-64
2022/01/12 02:13:20;;;;;;;6.13;5.40;;;;;;;-0.63;80.64;98419.34;5093109;28;20409;-64
2022/01/12 02:15:47;;;;;;;6.00;5.40;;;;;;;-0.62;80.72;98425.34;5093028;28;20390;-64
2022/01/12 02:39:50;;;;;;;9.00;6.65;;;;;;;-1.26;84.90;98442.97;5092548;28;20385;-65
2022/01/12 02:39:54;;;;;;;7.95;7.15;;;;;;;-1.48;85.84;98446.28;5088600;28;20418;-65
2022/01/12 02:42:19;;;;;;;8.15;7.03;;;;;;;-1.39;86.49;98437.88;5093002;28;20708;-65
2022/01/12 02:50:57;;;;;;;9.25;7.78;;;;;;;-1.60;88.13;98421.44;5092088;28;20389;-65
2022/01/12 02:55:50;;;;;;;10.02;8.30;;;;;;;-1.40;87.46;98420.84;5092150;28;20897;-65
2022/01/12 02:58:15;;;;;;;9.23;8.23;;;;;;;-1.47;88.22;98432.50;5092622;28;20440;-65
2022/01/12 03:03:30;;;;;;;9.73;8.68;;;;;;;-1.36;87.50;98434.28;5092046;28;20408;-65
2022/01/12 03:06:01;;;;;;;10.00;8.90;;;;;;;-1.47;89.16;98431.66;5091528;28;20814;-65
2022/01/12 03:08:28;;;;;;;10.50;8.90;;;;;;;-1.28;87.57;98426.81;5091040;28;20416;-65
2022/01/12 03:10:54;;;;;;;10.55;9.10;;;;;;;-1.15;86.74;98427.56;5073494;28;20385;-65
2022/01/12 03:13:19;;;;;;;10.85;9.65;;;;;;;-1.08;86.50;98410.75;5091966;28;20389;-65
2022/01/12 03:15:47;;;;;;;10.65;9.13;;;;;;;-1.22;86.40;98434.09;5091537;28;20390;-65
2022/01/12 03:18:13;;;;;;;10.60;9.50;;;;;;;-1.11;86.30;98433.28;5091562;28;20924;-64
2022/01/12 03:20:38;;;;;;;11.53;9.97;;;;;;;-1.22;86.52;98428.13;5091294;28;20413;-65
2022/01/12 03:23:04;;;;;;;10.73;9.63;;;;;;;-1.28;86.84;98434.53;5091394;28;20390;-64
2022/01/12 03:25:29;;;;;;;10.65;9.55;;;;;;;-1.30;87.08;98431.28;5091609;28;20481;-65
2022/01/12 03:27:59;;;;;;;11.75;9.93;;;;;;;-1.39;87.16;98431.91;5092267;28;20386;-64
2022/01/12 03:30:25;;;;;;;12.07;10.13;;;;;;;-1.52;88.08;98437.16;5091769;28;20398;-64
2022/01/12 03:33:05;;;;;;;11.43;9.88;;;;;;;-1.39;88.11;98431.91;5091610;28;20484;-64
2022/01/12 03:35:50;;;;;;;12.68;10.55;;;;;;;-1.30;87.19;98433.84;5091458;28;20703;-65
2022/01/12 03:38:21;;;;;;;10.88;9.77;;;;;;;-1.35;87.57;98444.47;5082380;28;20413;-64
2022/01/12 03:40:48;;;;;;;11.07;9.60;;;;;;;-1.46;87.66;98454.72;5091680;28;20497;-64
2022/01/12 03:43:15;;;;;;;10.82;9.00;;;;;;;-1.73;89.26;98459.25;5091411;28;20386;-65
2022/01/12 03:45:41;;;;;;;11.15;9.73;;;;;;;-1.30;87.54;98456.97;5091031;28;20430;-65
2022/01/12 03:48:06;;;;;;;10.15;8.90;;;;;;;-1.41;87.22;98457.75;5091391;28;20410;-65
2022/01/12 03:50:31;;;;;;;10.73;9.37;;;;;;;-1.57;87.70;98454.66;5090965;28;20940;-65
2022/01/12 03:52:57;;;;;;;10.13;8.87;;;;;;;-1.75;89.15;98455.97;5090084;28;20480;-64
2022/01/12 03:55:22;;;;;;;11.00;8.80;;;;;;;-1.82;89.55;98453.00;5091496;28;20919;-65
2022/01/12 03:57:48;;;;;;;10.23;8.82;;;;;;;-1.66;89.15;98455.28;5091413;28;20459;-64
2022/01/12 04:00:13;;;;;;;10.37;9.30;;;;;;;-1.85;89.94;98468.63;5090989;28;20406;-64
2022/01/12 04:02:40;;;;;;;10.90;9.17;;;;;;;-1.89;90.45;98464.63;5091723;28;20398;-64
2022/01/12 04:05:24;;;;;;;10.18;9.10;;;;;;;-1.89;90.19;98469.75;5091668;28;20391;-64
2022/01/12 04:10:33;;;;;;;11.20;9.40;;;;;;;-2.03;91.53;98487.06;5091118;28;20490;-65
2022/01/12 04:13:00;;;;;;;10.40;9.30;;;;;;;-2.04;91.69;98482.84;5091140;28;20477;-64
2022/01/12 04:15:25;;;;;;;10.25;9.18;;;;;;;-1.98;91.08;98472.16;5090955;28;20389;-65
2022/01/12 04:17:50;;;;;;;10.93;9.47;;;;;;;-1.84;90.46;98461.75;5091133;28;20434;-64
2022/01/12 04:20:16;;;;;;;11.50;10.20;;;;;;;-1.49;89.19;98452.34;5090738;28;20441;-64
2022/01/12 04:25:25;;;;;;;11.50;10.13;;;;;;;-1.47;88.50;98444.53;5090779;28;20849;-65
2022/01/12 04:27:52;;;;;;;11.33;10.10;;;;;;;-1.44;87.53;98446.88;5091231;28;20382;-65
2022/01/12 04:30:17;;;;;;;13.15;10.57;;;;;;;-1.51;87.69;98449.06;5090929;28;20461;-65
2022/01/12 04:32:43;;;;;;;12.90;10.30;;;;;;;-1.48;87.63;98448.84;5090811;28;20382;-64
2022/01/12 04:35:10;;;;;;;12.93;10.52;;;;;;;-1.59;88.53;98458.25;5091459;28;20385;-64
2022/01/12 04:37:36;;;;;;;12.18;10.57;;;;;;;-1.49;88.42;98460.06;5090361;28;20450;-65
2022/01/12 04:40:03;;;;;;;12.37;10.40;;;;;;;-1.64;88.78;98450.88;5090629;28;20612;-64
2022/01/12 04:42:29;;;;;;;11.75;10.15;;;;;;;-1.71;89.00;98460.75;5072852;28;20397;-64
2022/01/12 04:45:02;;;;;;;13.53;11.20;;;;;;;-1.81;90.25;98476.94;5072806;28;20402;-65
2022/01/12 04:47:45;;;;;;;12.52;10.85;;;;;;;-1.75;90.80;98482.47;5091070;28;20398;-64
2022/01/12 04:50:10;;;;;;;13.07;11.17;;;;;;;-1.67;89.71;98484.47;5087478;28;20482;-65
2022/01/12 04:52:36;;;;;;;13.23;11.40;;;;;;;-1.62;89.53;98489.31;5082436;28;20380;-64
2022/01/12 04:55:01;;;;;;;14.03;11.70;;;;;;;-1.83;90.69;98477.03;5082696;28;20392;-65
2022/01/12 04:57:27;;;;;;;14.48;11.77;;;;;;;-1.82;90.19;98478.69;5072653;28;20394;-65
2022/01/12 05:00:15;;;;;;;14.83;12.20;;;;;;;-1.86;90.85;98486.72;5071455;28;20908;-65
2022/01/12 05:13:28;;;;;;;14.48;11.82;;;;;;;-1.81;91.07;98507.78;5094404;28;20704;-64
2022/01/12 05:15:53;;;;;;;14.65;12.45;;;;;;;-1.69;90.39;98502.59;5093725;28;20390;-65
2022/01/12 05:18:19;;;;;;;15.30;12.82;;;;;;;-1.64;90.00;98509.16;5093527;28;20482;-65
2022/01/12 05:20:46;;;;;;;15.05;12.32;;;;;;;-1.75;90.26;98512.50;5084375;28;20495;-65
2022/01/12 05:23:12;;;;;;;15.55;12.35;;;;;;;-1.92;90.76;98507.69;5074086;28;20406;-65
2022/01/12 05:25:37;;;;;;;15.97;12.33;;;;;;;-2.11;91.88;98514.09;5090752;28;20378;-65
2022/01/12 05:28:03;;;;;;;14.07;12.30;;;;;;;-2.16;92.78;98511.03;5072233;28;20398;-65
2022/01/12 05:30:28;;;;;;;15.55;12.70;;;;;;;-2.04;92.99;98522.22;5089634;28;20483;-65
2022/01/12 05:32:53;;;;;;;16.30;13.40;;;;;;;-2.02;92.67;98522.94;5073692;28;20392;-65
2022/01/12 05:35:20;;;;;;;15.63;12.87;;;;;;;-1.83;91.30;98531.00;5087532;28;20400;-65
2022/01/12 05:37:46;;;;;;;16.25;13.38;;;;;;;-1.91;91.85;98535.03;5080247;28;20465;-65
2022/01/12 05:40:12;;;;;;;15.93;13.47;;;;;;;-1.65;90.53;98536.63;5093747;28;20909;-65
2022/01/12 05:42:38;;;;;;;16.95;13.85;;;;;;;-1.98;91.57;98544.09;5093697;28;20476;-65
2022/01/12 05:45:06;;;;;;;18.10;14.47;;;;;;;-2.02;91.94;98540.91;5093343;28;20473;-65
2022/01/12 05:49:59;;;;;;;16.95;13.27;;;;;;;-2.07;92.15;98537.00;5081835;28;20390;-65
2022/01/12 05:52:25;;;;;;;17.77;13.60;;;;;;;-2.20;92.44;98537.84;5093406;28;20417;-65
2022/01/12 05:54:50;;;;;;;16.60;13.80;;;;;;;-2.08;92.94;98532.81;5093122;28;20404;-65
2022/01/12 05:57:15;;;;;;;18.53;13.73;;;;;;;-2.04;91.86;98517.06;5093219;28;20462;-65
2022/01/12 05:59:41;;;;;;;18.38;14.15;;;;;;;-1.94;91.69;98509.53;5093130;28;20439;-65
2022/01/12 06:02:06;;;;;;;18.47;14.60;;;;;;;-2.10;92.21;98525.19;5092731;28;20394;-65
2022/01/12 06:04:31;;;;;;;16.63;14.00;;;;;;;-1.93;91.84;98529.16;5092956;28;20382;-65
2022/01/12 06:07:01;;;;;;;19.40;14.57;;;;;;;-1.91;91.58;98530.72;5075261;28;20382;-65
2022/01/12 06:09:26;;;;;;;17.63;14.50;;;;;;;-1.87;91.50;98544.16;5092828;28;20421;-67
2022/01/12 06:11:52;;;;;;;19.07;14.70;;;;;;;-1.96;91.80;98548.19;5093342;28;20402;-65
2022/01/12 06:14:19;;;;;;;18.03;14.13;;;;;;;-2.12;91.66;98550.19;5092533;28;20389;-67
2022/01/12 06:16:44;;;;;;;18.05;14.75;;;;;;;-1.97;93.49;98546.56;5092904;28;20386;-66
2022/01/12 06:19:10;;;;;;;18.20;14.60;;;;;;;-1.94;92.07;98551.47;5092688;28;20410;-66
2022/01/12 06:21:35;;;;;;;19.47;15.03;;;;;;;-2.10;92.42;98558.56;5074301;28;20477;-66
2022/01/12 06:24:00;;;;;;;18.70;14.68;;;;;;;-2.31;93.95;98568.56;5092570;28;20382;-66
2022/01/12 06:26:27;;;;;;;20.70;15.47;;;;;;;-2.06;93.92;98559.22;5092713;28;20749;-65
2022/01/12 06:29:15;;;;;;;18.50;14.80;;;;;;;-1.99;92.76;98555.28;5092746;28;20385;-66
2022/01/12 06:31:42;;;;;;;20.77;14.93;;;;;;;-2.01;92.83;98562.28;5092330;28;20829;-65
2022/01/12 06:34:07;;;;;;;19.27;15.20;;;;;;;-2.30;93.93;98579.66;5074311;28;20390;-66
2022/01/12 06:36:33;;;;;;;17.20;14.07;;;;;;;-2.49;94.55;98586.91;5092611;28;20386;-66
2022/01/12 06:38:59;;;;;;;19.00;14.47;;;;;;;-2.55;94.99;98580.44;5092058;28;20410;-65
2022/01/12 06:41:24;;;;;;;19.02;15.07;;;;;;;-2.33;93.67;98577.28;5092465;28;20477;-66
2022/01/12 06:43:50;;;;;;;18.70;14.65;;;;;;;-2.18;93.31;98569.38;5092234;28;20480;-65
2022/01/12 06:46:22;;;;;;;17.33;13.90;;;;;;;-2.36;94.32;98562.09;5092358;28;20386;-65
2022/01/12 06:48:48;;;;;;;18.13;13.80;;;;;;;-2.37;94.13;98576.66;5065324;28;20839;-65
2022/01/12 06:51:13;;;;;;;19.13;15.00;;;;;;;-2.14;93.44;98570.00;5060432;28;20395;-65
2022/01/12 06:53:38;;;;;;;20.05;15.35;;;;;;;-2.18;92.83;98571.13;5075990;28;20473;-65
2022/01/12 06:56:04;;;;;;;19.17;15.53;;;;;;;-2.20;92.97;98567.84;5091584;28;20422;-66
2022/01/12 06:58:30;;;;;;;17.55;14.00;;;;;;;-2.19;92.56;98565.16;5075618;28;20392;-65
2022/01/12 07:00:55;;;;;;;19.33;15.33;;;;;;;-2.07;92.54;98571.22;5072818;28;20415;-65
2022/01/12 07:03:21;;;;;;;18.70;14.63;;;;;;;-2.32;92.96;98568.66;5071918;28;20402;-66
2022/01/12 07:05:47;;;;;;;19.53;15.00;;;;;;;-2.34;92.70;98578.22;5091793;28;20390;-64
2022/01/12 07:08:13;;;;;;;21.58;15.05;;;;;;;-2.54;93.49;98579.50;5091048;28;20406;-65
2022/01/12 07:10:38;;;;;;;21.37;16.37;;;;;;;-2.46;93.45;98576.47;5091270;28;20603;-65
2022/01/12 07:13:04;;;;;;;20.30;15.83;;;;;;;-2.46;93.92;98573.88;5090386;28;20450;-65
2022/01/12 07:15:29;;;;;;;20.95;16.02;;;;;;;-2.36;93.46;98583.44;5091830;28;20394;-65
2022/01/12 07:17:54;;;;;;;21.30;16.83;;;;;;;-2.34;93.62;98579.00;5091446;28;20917;-65
2022/01/12 07:20:20;;;;;;;21.40;16.63;;;;;;;-2.44;93.65;98580.56;5090796;28;20958;-65
2022/01/12 07:22:45;;;;;;;22.27;16.97;;;;;;;-2.36;93.66;98592.88;5073462;28;20386;-64
2022/01/12 07:25:11;;;;;;;21.95;17.75;;;;;;;-2.25;96.03;98588.69;5090578;28;20476;-64
2022/01/12 07:27:37;;;;;;;23.57;18.43;;;;;;;-2.22;94.91;98588.47;5091339;28;20394;-64
2022/01/12 07:30:03;;;;;;;21.65;17.10;;;;;;;-2.21;94.88;98586.72;5090232;28;20405;-65
2022/01/12 07:32:28;;;;;;;20.27;15.65;;;;;;;-2.30;95.34;98588.19;5090514;28;20483;-65
2022/01/12 07:34:54;;;;;;;20.30;16.00;;;;;;;-2.22;93.78;98598.75;5090755;28;20835;-65
2022/01/12 07:37:21;;;;;;;17.80;14.93;;;;;;;-2.27;93.46;98595.66;5091264;28;20382;-65
2022/01/12 07:39:46;;;;;;;19.73;15.45;;;;;;;-0.20;100.00;98592.06;5091032;28;20416;-68
2022/01/12 07:42:11;;;;;;;43.67;29.60;;;;;;;0.31;98.52;98600.19;5091383;28;20730;-66
2022/01/12 07:44:38;;;;;;;17.50;14.68;;;;;;;-0.86;89.12;98606.38;5091320;28;20597;-66
2022/01/12 07:47:03;;;;;;;18.35;14.60;;;;;;;-0.94;89.69;98595.81;5091056;28;20793;-67
2022/01/12 07:49:29;;;;;;;17.43;14.50;;;;;;;-1.26;88.52;98592.13;5090722;28;20401;-68
2022/01/12 07:51:54;;;;;;;18.77;14.50;;;;;;;-1.68;89.58;98595.97;5091504;28;20386;-66
2022/01/12 07:54:20;;;;;;;17.33;14.03;;;;;;;-1.45;89.50;98607.22;5073237;28;20394;-66
2022/01/12 07:56:45;;;;;;;16.40;13.70;;;;;;;-1.46;89.30;98608.16;5073808;28;20431;-66
2022/01/12 07:59:10;;;;;;;18.30;14.43;;;;;;;-1.49;89.53;98618.63;5091433;28;20438;-68
2022/01/12 08:01:36;;;;;;;15.97;13.80;;;;;;;-1.67;90.68;98624.09;5090606;28;20459;-66
2022/01/12 08:04:01;;;;;;;15.88;13.60;;;;;;;-1.37;89.50;98640.91;5091384;28;20800;-65
2022/01/12 08:06:27;;;;;;;16.60;12.80;;;;;;;-1.07;88.05;98637.97;5091691;28;20472;-67
2022/01/12 08:08:52;;;;;;;16.03;12.93;;;;;;;-0.87;86.77;98651.06;5090631;28;20389;-65
2022/01/12 08:11:18;;;;;;;14.67;12.47;;;;;;;-0.88;86.78;98664.03;5076469;28;20398;-66
2022/01/12 08:13:45;;;;;;;16.30;12.85;;;;;;;-0.81;85.91;98664.41;5082627;28;20390;-66
2022/01/12 08:16:11;;;;;;;15.20;12.65;;;;;;;-1.11;87.17;98667.41;5090978;28;20497;-66
2022/01/12 08:18:36;;;;;;;15.20;12.53;;;;;;;-0.78;86.76;98659.88;5089395;28;20500;-66
2022/01/12 08:21:04;;;;;;;14.50;12.40;;;;;;;-0.96;86.43;98654.31;5085533;28;20399;-66
2022/01/12 08:23:30;;;;;;;16.13;13.10;;;;;;;-0.83;86.39;98661.94;5071092;28;20388;-66
2022/01/12 08:25:55;;;;;;;15.43;12.57;;;;;;;-0.71;86.52;98666.22;5071195;28;20394;-66
2022/01/12 08:28:21;;;;;;;16.70;12.60;;;;;;;-0.51;85.82;98664.81;5071914;28;20808;-66
2022/01/12 08:30:46;;;;;;;15.33;12.33;;;;;;;-0.06;82.49;98663.22;5083021;28;21014;-66
2022/01/12 08:33:11;;;;;;;14.68;11.75;;;;;;;0.11;82.26;98674.84;5083266;28;20752;-66
2022/01/12 08:35:37;;;;;;;13.80;11.73;;;;;;;0.23;80.86;98671.31;5083772;28;20486;-66
2022/01/12 08:38:02;;;;;;;15.30;11.77;;;;;;;0.27;81.00;98676.16;5090374;28;20727;-67
2022/01/12 08:40:29;;;;;;;14.55;11.15;;;;;;;-0.33;82.42;98671.19;5074557;28;20424;-67
2022/01/12 08:42:55;;;;;;;13.43;10.88;;;;;;;-0.10;81.74;98657.44;5073856;28;20937;-67
2022/01/12 08:45:21;;;;;;;16.10;11.43;;;;;;;0.05;81.66;98652.91;5092477;28;20394;-69
2022/01/12 08:47:46;;;;;;;14.48;10.95;;;;;;;0.10;80.99;98661.13;5087894;28;20425;-67
2022/01/12 08:50:13;;;;;;;14.45;11.52;;;;;;;0.16;80.56;98667.59;5076101;28;20530;-66
2022/01/12 08:52:44;;;;;;;14.38;11.25;;;;;;;-0.06;81.18;98678.66;5094520;28;20386;-66
2022/01/12 08:55:12;;;;;;;13.93;11.13;;;;;;;0.19;79.75;98682.81;5094131;28;20471;-67
2022/01/12 08:57:37;;;;;;;12.63;10.85;;;;;;;0.03;79.37;98684.88;5094504;28;20390;-67
2022/01/12 09:00:05;;;;;;;12.45;10.65;;;;;;;-0.02;79.32;98690.38;5075454;28;20875;-67
2022/01/12 09:02:31;;;;;;;12.38;10.18;;;;;;;-0.04;79.61;98687.91;5093900;28;20386;-67
2022/01/12 09:04:56;;;;;;;12.00;10.77;;;;;;;0.28;77.91;98677.78;5094190;28;20517;-67
2022/01/12 09:07:21;;;;;;;14.45;11.02;;;;;;;0.10;78.52;98675.78;5075443;28;20378;-67
2022/01/12 09:09:47;;;;;;;12.27;10.37;;;;;;;0.05;78.64;98678.69;5093091;28;20421;-67
2022/01/12 09:12:12;;;;;;;12.60;10.60;;;;;;;0.03;78.61;98675.41;5093625;28;20393;-68
2022/01/12 09:14:38;;;;;;;12.18;10.48;;;;;;;-0.39;80.42;98683.72;5093383;28;20455;-67
2022/01/12 09:17:12;;;;;;;12.50;11.00;;;;;;;0.03;79.49;98702.94;5075282;28;20855;-67
2022/01/12 09:19:37;;;;;;;12.77;10.57;;;;;;;0.08;79.31;98705.97;5075809;28;20409;-67
2022/01/12 09:22:03;;;;;;;13.03;10.73;;;;;;;-0.08;79.31;98708.88;5093742;28;20463;-67
2022/01/12 09:24:28;;;;;;;11.80;10.50;;;;;;;0.10;79.21;98717.00;5093755;28;20389;-67
2022/01/12 09:26:53;;;;;;;12.20;10.40;;;;;;;0.32;78.59;98714.47;5093057;28;20397;-67
2022/01/12 09:29:19;;;;;;;12.40;11.10;;;;;;;0.43;77.71;98711.09;5093384;28;20874;-67
2022/01/12 09:31:45;;;;;;;12.83;11.20;;;;;;;0.35;78.00;98717.66;5094159;28;20390;-67
2022/01/12 09:34:10;;;;;;;13.53;11.27;;;;;;;0.62;77.15;98722.47;5093752;28;20754;-67
2022/01/12 09:36:35;;;;;;;12.87;10.87;;;;;;;0.63;76.83;98718.13;5093344;28;20469;-67
2022/01/12 09:39:01;;;;;;;12.70;11.20;;;;;;;0.50;77.24;98718.28;5093348;28;20828;-68
2022/01/12 09:41:27;;;;;;;11.32;9.95;;;;;;;0.51;77.13;98719.06;5093061;28;20410;-67
2022/01/12 09:43:54;;;;;;;12.18;10.88;;;;;;;0.79;76.72;98716.84;5074979;28;20793;-66
2022/01/12 09:46:22;;;;;;;12.18;10.32;;;;;;;0.56;76.31;98702.31;5093317;28;20885;-66
2022/01/12 09:48:47;;;;;;;11.68;10.27;;;;;;;0.58;76.61;98687.53;5092391;28;20898;-66
2022/01/12 09:51:13;;;;;;;11.83;9.83;;;;;;;0.51;76.75;98695.84;5087930;28;20428;-66
2022/01/12 09:53:41;;;;;;;11.00;9.60;;;;;;;0.56;75.29;98710.03;5079826;28;20423;-66
2022/01/12 09:56:21;;;;;;;10.23;9.10;;;;;;;0.66;74.65;98717.91;5061577;28;20392;-67
2022/01/12 09:58:51;;;;;;;13.93;9.80;;;;;;;0.87;73.70;98716.28;5078285;28;20888;-66
2022/01/12 10:01:43;;;;;;;11.20;9.70;;;;;;;0.40;75.46;98736.16;5086581;28;20468;-66
2022/01/12 10:04:20;;;;;;;11.32;9.82;;;;;;;0.58;75.25;98749.44;5079947;28;20395;-66
2022/01/12 10:06:53;;;;;;;11.75;10.02;;;;;;;0.48;75.22;98745.94;5073009;28;20400;-66
2022/01/12 10:09:25;;;;;;;12.05;9.30;;;;;;;0.89;73.50;98736.81;5087827;28;20890;-65
2022/01/12 10:12:00;;;;;;;11.65;9.93;;;;;;;0.84;73.00;98731.97;5082382;28;20392;-67
2022/01/12 10:14:48;;;;;;;12.50;10.40;;;;;;;0.92;72.88;98737.38;5073056;28;20392;-66
2022/01/12 10:17:14;;;;;;;12.95;10.18;;;;;;;0.63;74.35;98736.19;5086233;28;20444;-66
2022/01/12 10:19:40;;;;;;;13.85;10.27;;;;;;;0.75;73.98;98749.00;5088887;28;20496;-68
2022/01/12 10:22:10;;;;;;;10.98;9.65;;;;;;;0.57;74.04;98736.66;5091765;28;20378;-68
2022/01/12 10:24:39;;;;;;;10.80;9.70;;;;;;;0.44;76.19;98723.88;5091834;28;20818;-68
2022/01/12 10:27:19;;;;;;;11.77;9.95;;;;;;;1.16;75.21;98716.59;5091949;28;20384;-68
2022/01/12 10:29:54;;;;;;;12.80;10.50;;;;;;;0.61;74.66;98730.34;5073824;28;20750;-68
2022/01/12 10:32:20;;;;;;;11.40;10.10;;;;;;;0.81;74.36;98729.66;5091996;28;20401;-68
2022/01/12 10:34:48;;;;;;;13.90;10.70;;;;;;;1.36;71.50;98739.09;5091834;28;20387;-69
2022/01/12 10:37:19;;;;;;;12.10;9.80;;;;;;;1.09;71.76;98738.66;5091585;28;20398;-68
2022/01/12 10:39:55;;;;;;;11.00;9.57;;;;;;;0.70;71.24;98745.13;5091941;28;20429;-66
2022/01/12 10:42:26;;;;;;;9.50;8.40;;;;;;;0.61;70.14;98751.81;5073254;28;20513;-69
2022/01/12 10:45:01;;;;;;;9.27;8.13;;;;;;;0.73;70.78;98757.78;5091162;28;20390;-66
2022/01/12 10:47:29;;;;;;;10.50;9.40;;;;;;;0.54;71.28;98748.03;5091280;28;20924;-66
2022/01/12 10:49:55;;;;;;;10.20;8.93;;;;;;;0.47;71.08;98751.19;5084352;28;20412;-65
2022/01/12 10:52:34;;;;;;;11.03;9.77;;;;;;;0.56;72.55;98751.31;5074028;28;20479;-66
2022/01/12 10:55:06;;;;;;;11.70;10.03;;;;;;;0.20;74.31;98749.72;5084096;28;20388;-66
2022/01/12 10:57:34;;;;;;;13.50;10.40;;;;;;;0.22;73.96;98755.59;5091598;28;20444;-65
2022/01/12 11:00:03;;;;;;;12.57;10.85;;;;;;;0.15;74.50;98751.00;5089853;28;20410;-66
2022/01/12 11:02:29;;;;;;;12.90;10.82;;;;;;;0.52;74.19;98759.41;5091066;28;20413;-66
2022/01/12 11:04:57;;;;;;;13.50;11.30;;;;;;;0.30;74.21;98755.03;5076271;28;20857;-66
2022/01/12 11:07:25;;;;;;;12.32;10.65;;;;;;;0.12;76.03;98762.34;5085979;28;20395;-66
2022/01/12 11:09:55;;;;;;;13.10;11.18;;;;;;;0.04;75.57;98745.81;5082729;28;20402;-66
2022/01/12 11:12:20;;;;;;;15.88;11.95;;;;;;;0.05;76.02;98750.88;5091421;28;20412;-66
2022/01/12 11:14:46;;;;;;;12.97;11.40;;;;;;;0.13;75.50;98750.28;5091702;28;20394;-66
2022/01/12 11:17:11;;;;;;;14.45;12.05;;;;;;;0.46;73.78;98739.22;5092204;28;20394;-65
2022/01/12 11:19:44;;;;;;;14.20;11.95;;;;;;;0.11;74.03;98732.38;5091129;28;20831;-65
2022/01/12 11:22:34;;;;;;;15.73;11.95;;;;;;;0.38;73.93;98739.81;5053863;28;20399;-65
2022/01/12 11:25:00;;;;;;;14.90;11.57;;;;;;;0.27;74.78;98747.53;5071682;28;20416;-65
2022/01/12 11:27:25;;;;;;;14.13;11.30;;;;;;;0.29;74.33;98743.06;5082374;28;20429;-65
2022/01/12 11:29:50;;;;;;;14.70;11.80;;;;;;;0.38;74.79;98750.13;5085898;28;20397;-65
2022/01/12 11:32:22;;;;;;;16.00;12.02;;;;;;;0.29;73.67;98749.03;5082694;28;20379;-65
2022/01/12 11:35:04;;;;;;;14.10;11.07;;;;;;;0.63;73.52;98739.59;5074232;28;20926;-65
2022/01/12 11:37:29;;;;;;;12.50;10.13;;;;;;;0.43;73.52;98729.16;5074503;28;20752;-66
2022/01/12 11:40:08;;;;;;;12.47;10.37;;;;;;;0.26;73.74;98738.16;5088726;28;20467;-65
2022/01/12 11:42:35;;;;;;;12.50;10.47;;;;;;;0.37;73.93;98731.25;5085643;28;20416;-64
2022/01/12 11:45:01;;;;;;;12.45;10.00;;;;;;;0.55;73.88;98726.47;5091597;28;20389;-65
2022/01/12 11:47:28;;;;;;;11.13;9.93;;;;;;;0.31;73.85;98718.81;5073224;28;20394;-65
2022/01/12 11:49:54;;;;;;;12.13;9.77;;;;;;;0.50;73.85;98709.72;5091042;28;20431;-65
2022/01/12 11:52:26;;;;;;;15.00;11.20;;;;;;;0.66;72.89;98697.28;5091379;28;20389;-65
2022/01/12 11:55:09;;;;;;;12.70;10.88;;;;;;;0.52;73.00;98688.00;5091409;28;20382;-65
2022/01/12 11:57:38;;;;;;;13.90;10.75;;;;;;;0.55;73.90;98668.91;5091395;28;20395;-65
2022/01/12 12:00:27;;;;;;;13.65;10.77;;;;;;;0.90;73.89;98666.97;5090226;28;20413;-65
2022/01/12 12:02:53;;;;;;;14.77;11.32;;;;;;;1.09;72.71;98669.78;5073626;28;20481;-67
2022/01/12 12:05:26;;;;;;;13.85;10.95;;;;;;;0.85;73.04;98671.69;5091215;28;20930;-65
2022/01/12 12:07:56;;;;;;;13.25;11.13;;;;;;;0.83;73.40;98666.66;5090698;28;20444;-65
2022/01/12 12:10:25;;;;;;;13.95;11.00;;;;;;;0.94;72.84;98675.31;5090922;28;20394;-65
2022/01/12 12:12:52;;;;;;;12.27;10.73;;;;;;;1.49;72.22;98664.84;5094345;28;20390;-65
2022/01/12 12:15:18;;;;;;;12.45;10.60;;;;;;;1.45;73.29;98663.44;5095206;28;20386;-68
2022/01/12 12:17:44;;;;;;;13.55;10.55;;;;;;;1.50;72.19;98663.09;5095393;28;20405;-66
2022/01/12 12:20:14;;;;;;;12.48;11.00;;;;;;;1.12;72.60;98664.38;5094673;28;20441;-66
2022/01/12 12:22:42;;;;;;;12.83;10.60;;;;;;;1.13;72.40;98660.84;5094017;28;20418;-65
2022/01/12 12:25:19;;;;;;;12.30;10.00;;;;;;;1.30;71.04;98658.69;5094970;28;20400;-66
2022/01/12 12:27:57;;;;;;;11.18;9.20;;;;;;;1.10;72.80;98655.13;5093708;28;20890;-66
2022/01/12 12:30:24;;;;;;;12.93;10.20;;;;;;;1.39;71.07;98657.97;5094725;28;20458;-65
2022/01/12 12:32:58;;;;;;;12.15;10.05;;;;;;;1.52;71.14;98662.00;5094615;28;20385;-65
2022/01/12 12:35:26;;;;;;;12.80;10.20;;;;;;;1.15;71.15;98655.56;5094560;28;20390;-65
2022/01/12 12:37:55;;;;;;;12.85;10.30;;;;;;;1.47;71.30;98650.41;5093957;28;20478;-65
2022/01/12 12:40:53;;;;;;;12.43;10.90;;;;;;;1.31;71.22;98650.81;5094443;28;20882;-65
2022/01/12 12:43:24;;;;;;;12.45;10.55;;;;;;;1.41;71.57;98648.31;5084092;28;20902;-66